Time;durP1;ratioP1;P1;durP2;ratioP2;P2;SDS_P1;SDS_P2;PMS_P1;PMS_P2;Temp;Humidity;BMP_temperature;BMP_pressure;BME280_temperature;BME280_humidity;BME280_pressure;Samples;Min_cycle;Max_cycle;Signal;HPM_P1;HPM_P2
2023/10/12 00:02:08;;;;;;;13.55;5.43;;;;;;;17.64;100.00;100860.25;4913390;29;20047;-88
2023/10/12 00:04:50;;;;;;;19.92;5.20;;;;;;;17.61;100.00;100861.47;4902246;29;20041;-87
2023/10/12 00:07:16;;;;;;;20.02;5.70;;;;;;;17.69;100.00;100865.28;4911449;29;20549;-87
2023/10/12 00:09:48;;;;;;;15.55;5.93;;;;;;;17.69;100.00;100866.13;4912537;29;20032;-87
2023/10/12 00:12:24;;;;;;;17.38;8.32;;;;;;;17.79;100.00;100866.00;4894821;29;20060;-87
2023/10/12 00:14:56;;;;;;;19.67;8.25;;;;;;;17.78;100.00;100869.81;4883746;29;20040;-87
2023/10/12 00:17:23;;;;;;;19.63;7.65;;;;;;;17.74;100.00;100879.50;4898880;29;20028;-87
2023/10/12 00:19:53;;;;;;;25.77;9.13;;;;;;;17.63;100.00;100870.47;4914483;29;20034;-87
2023/10/12 00:22:19;;;;;;;23.02;8.70;;;;;;;17.64;100.00;100874.09;4898961;29;20042;-87
2023/10/12 00:24:44;;;;;;;22.48;8.85;;;;;;;17.60;100.00;100875.47;4915021;29;20048;-87
2023/10/12 00:27:15;;;;;;;20.75;8.90;;;;;;;17.59;100.00;100890.34;4919615;29;20039;-89
2023/10/12 00:29:48;;;;;;;23.88;9.60;;;;;;;17.57;100.00;100887.72;4915743;29;20067;-87
2023/10/12 00:32:14;;;;;;;21.83;9.77;;;;;;;17.50;100.00;100889.44;4919749;29;20025;-87
2023/10/12 00:34:53;;;;;;;25.52;9.60;;;;;;;17.49;100.00;100909.00;4924554;29;20036;-86
2023/10/12 00:37:21;;;;;;;29.27;10.55;;;;;;;17.42;100.00;100911.56;4919074;29;20040;-87
2023/10/12 00:42:24;;;;;;;27.60;11.30;;;;;;;17.38;100.00;100916.56;4915804;29;20487;-87
2023/10/12 00:44:53;;;;;;;31.27;11.05;;;;;;;17.41;100.00;100924.53;4897607;29;20033;-88
2023/10/12 00:47:44;;;;;;;27.10;11.13;;;;;;;17.32;100.00;100903.38;4903797;29;20040;-87
2023/10/12 00:50:13;;;;;;;29.88;12.02;;;;;;;17.30;100.00;100918.38;4902474;29;20036;-87
2023/10/12 00:53:31;;;;;;;29.58;12.68;;;;;;;17.25;100.00;100929.97;4903147;29;20151;-87
2023/10/12 00:55:36;;;;;;;33.08;12.38;;;;;;;17.29;100.00;100927.75;4909120;29;20044;-87
2023/10/12 00:58:05;;;;;;;25.65;13.05;;;;;;;17.22;100.00;100936.69;4916431;29;20032;-87
2023/10/12 01:00:35;;;;;;;29.45;12.68;;;;;;;17.28;100.00;100937.94;4900524;29;20046;-87
2023/10/12 01:03:27;;;;;;;36.58;14.45;;;;;;;17.19;100.00;100944.47;4907694;29;20042;-87
2023/10/12 01:06:33;;;;;;;30.70;14.90;;;;;;;17.19;100.00;100944.47;4918429;29;20044;-87
2023/10/12 01:08:52;;;;;;;34.33;15.48;;;;;;;17.10;100.00;100949.03;4909117;29;20072;-88
2023/10/12 01:13:49;;;;;;;36.17;16.90;;;;;;;16.85;100.00;100948.84;4918173;29;20036;-89
2023/10/12 01:16:22;;;;;;;41.08;17.92;;;;;;;16.80;100.00;100948.44;4915958;29;20027;-89
2023/10/12 01:18:55;;;;;;;43.83;18.42;;;;;;;16.69;100.00;100945.91;4921510;29;20032;-90
2023/10/12 01:21:20;;;;;;;34.85;17.40;;;;;;;16.62;100.00;100940.16;4914367;29;20530;-88
2023/10/12 01:23:50;;;;;;;39.00;17.38;;;;;;;16.58;100.00;100943.41;4929704;29;20050;-90
2023/10/12 01:26:16;;;;;;;46.15;19.92;;;;;;;16.59;100.00;100953.44;4892369;29;20482;-89
2023/10/12 01:28:45;;;;;;;51.00;20.10;;;;;;;16.46;100.00;100951.97;4927561;29;20048;-88
2023/10/12 01:31:11;;;;;;;40.15;20.48;;;;;;;16.44;100.00;100948.47;4893557;29;20135;-88
2023/10/12 01:33:41;;;;;;;41.80;21.42;;;;;;;16.38;100.00;100962.03;4900175;29;20081;-89
2023/10/12 01:36:08;;;;;;;44.40;22.02;;;;;;;16.42;100.00;100961.56;4903996;29;20115;-88
2023/10/12 01:38:37;;;;;;;47.22;22.10;;;;;;;16.32;100.00;100971.84;4886673;29;20040;-89
2023/10/12 01:41:10;;;;;;;47.70;22.27;;;;;;;16.31;100.00;100970.09;4885845;29;20036;-89
2023/10/12 01:43:36;;;;;;;44.72;22.42;;;;;;;16.34;100.00;100967.03;4889218;29;20033;-90
2023/10/12 01:46:07;;;;;;;54.67;23.77;;;;;;;16.31;100.00;100957.13;4906529;29;20054;-89
2023/10/12 01:48:37;;;;;;;53.00;23.52;;;;;;;16.32;100.00;100967.16;4895781;29;20164;-89
2023/10/12 01:51:14;;;;;;;47.65;23.35;;;;;;;16.22;100.00;100960.00;4898959;29;20095;-90
2023/10/12 01:53:40;;;;;;;48.25;23.88;;;;;;;16.12;100.00;100960.91;4915759;29;20058;-90
2023/10/12 01:56:10;;;;;;;55.38;23.90;;;;;;;16.11;100.00;100941.72;4885893;29;20044;-89
2023/10/12 01:58:35;;;;;;;45.40;23.20;;;;;;;16.09;100.00;100943.78;4901629;29;20032;-88
2023/10/12 02:01:07;;;;;;;51.35;24.65;;;;;;;16.01;100.00;100927.13;4917376;29;20110;-87
2023/10/12 02:03:42;;;;;;;41.00;20.37;;;;;;;15.92;100.00;100932.56;4908636;29;20036;-88
2023/10/12 02:06:17;;;;;;;38.80;18.55;;;;;;;15.91;100.00;100939.09;4916512;29;20028;-87
2023/10/12 02:08:46;;;;;;;39.00;18.15;;;;;;;15.79;100.00;100955.00;4901128;29;20027;-87
2023/10/12 02:11:43;;;;;;;36.10;17.70;;;;;;;15.78;100.00;100949.63;4911888;29;20123;-87
2023/10/12 02:14:11;;;;;;;34.28;18.15;;;;;;;15.72;100.00;100941.91;4885817;29;20074;-87
2023/10/12 02:16:38;;;;;;;34.78;18.80;;;;;;;15.74;100.00;100943.53;4897013;29;20040;-87
2023/10/12 02:19:19;;;;;;;43.60;18.40;;;;;;;15.72;100.00;100941.91;4902226;29;20450;-86
2023/10/12 02:21:46;;;;;;;42.70;19.23;;;;;;;15.66;100.00;100948.94;4902074;29;20033;-87
2023/10/12 02:24:13;;;;;;;44.05;18.08;;;;;;;15.58;100.00;100933.13;4902309;29;20040;-87
2023/10/12 02:26:44;;;;;;;44.10;19.92;;;;;;;15.65;100.00;100946.31;4923828;29;20035;-87
2023/10/12 02:34:19;;;;;;;47.30;22.38;;;;;;;15.55;100.00;100935.34;4922063;29;20033;-87
2023/10/12 02:39:37;;;;;;;49.35;21.92;;;;;;;15.56;100.00;100915.84;4905202;29;20099;-88
2023/10/12 02:42:17;;;;;;;51.42;22.58;;;;;;;15.62;100.00;100923.50;4902909;29;20048;-88
2023/10/12 02:47:23;;;;;;;49.28;24.30;;;;;;;15.52;100.00;100927.34;4918682;29;20474;-84
2023/10/12 02:50:15;;;;;;;60.17;24.38;;;;;;;15.50;100.00;100934.91;4915170;29;20031;-79
2023/10/12 02:52:43;;;;;;;50.05;23.67;;;;;;;15.51;100.00;100936.63;4897966;29;20308;-79
2023/10/12 02:58:07;;;;;;;54.67;24.10;;;;;;;15.50;100.00;100915.59;4894090;29;20402;-79
2023/10/12 03:00:36;;;;;;;42.17;22.67;;;;;;;15.56;100.00;100892.88;4911707;29;20028;-79
2023/10/12 03:05:47;;;;;;;50.78;23.77;;;;;;;15.47;100.00;100914.00;4915329;29;20130;-79
2023/10/12 03:08:17;;;;;;;50.28;23.92;;;;;;;15.49;100.00;100906.44;4912778;29;20043;-80
2023/10/12 03:13:36;;;;;;;43.20;22.88;;;;;;;15.44;100.00;100906.03;4913679;29;20158;-79
2023/10/12 03:16:24;;;;;;;42.10;20.98;;;;;;;15.44;100.00;100906.03;4917184;29;20046;-79
2023/10/12 03:19:00;;;;;;;41.13;21.70;;;;;;;15.47;100.00;100913.16;4896283;29;20103;-80
2023/10/12 03:21:33;;;;;;;46.85;21.25;;;;;;;15.41;100.00;100920.13;4914686;29;20032;-79
2023/10/12 03:24:03;;;;;;;;;;;;;;;15.38;100.00;100937.88;4902400;29;20036;-79
2023/10/12 03:26:29;;;;;;;48.63;22.67;;;;;;;15.37;100.00;100951.81;4916905;29;19919;-79
2023/10/12 03:29:32;;;;;;;46.72;20.45;;;;;;;15.34;100.00;100941.06;4914503;29;20028;-79
2023/10/12 03:34:34;;;;;;;43.53;22.45;;;;;;;15.28;100.00;100923.22;4898877;29;20046;-79
2023/10/12 03:37:03;;;;;;;53.22;23.25;;;;;;;15.32;100.00;100924.66;4912757;29;20080;-79
2023/10/12 03:45:07;;;;;;;48.25;23.48;;;;;;;15.36;100.00;100916.94;4911849;29;20116;-79
2023/10/12 03:47:46;;;;;;;50.13;23.20;;;;;;;15.35;100.00;100905.06;4899815;29;20383;-79
2023/10/12 03:50:16;;;;;;;47.67;24.38;;;;;;;15.30;100.00;100903.75;4896704;29;20118;-79
2023/10/12 03:52:51;;;;;;;57.80;24.17;;;;;;;15.29;100.00;100896.53;4904450;29;20032;-79
2023/10/12 03:55:27;;;;;;;56.30;25.50;;;;;;;15.25;100.00;100896.81;4899628;29;20422;-79
2023/10/12 04:03:18;;;;;;;53.83;22.15;;;;;;;15.45;100.00;100902.25;4931969;29;20505;-79
2023/10/12 04:11:21;;;;;;;46.70;21.08;;;;;;;15.37;100.00;100918.69;4920310;29;20039;-79
2023/10/12 04:18:42;;;;;;;44.92;21.70;;;;;;;15.26;100.00;100936.28;4911297;29;20414;-79
2023/10/12 04:21:10;;;;;;;54.88;21.92;;;;;;;15.31;100.00;100930.34;4918925;29;20110;-79
2023/10/12 04:26:27;;;;;;;47.95;21.98;;;;;;;15.20;100.00;100945.16;4915090;29;20044;-78
2023/10/12 04:28:54;;;;;;;42.00;21.25;;;;;;;15.15;100.00;100948.41;4920395;29;20036;-79
2023/10/12 04:36:44;;;;;;;45.30;22.30;;;;;;;15.17;100.00;100948.25;4916339;29;20127;-80
2023/10/12 04:39:16;;;;;;;55.30;22.27;;;;;;;15.15;100.00;100944.75;4904296;29;20267;-80
2023/10/12 04:47:09;;;;;;;55.20;23.27;;;;;;;15.24;100.00;100955.75;4918241;29;20048;-79
2023/10/12 04:57:27;;;;;;;45.35;22.85;;;;;;;15.24;100.00;100944.72;4917806;29;20107;-78
2023/10/12 05:00:04;;;;;;;54.78;23.60;;;;;;;15.22;100.00;100944.00;4924681;29;20059;-79
2023/10/12 05:02:33;;;;;;;52.55;23.13;;;;;;;15.20;100.00;100937.78;4890499;29;20044;-78
2023/10/12 05:07:59;;;;;;;50.88;23.00;;;;;;;15.33;100.00;100953.13;4899955;29;20044;-87
2023/10/12 05:10:41;;;;;;;45.38;22.33;;;;;;;15.33;100.00;100954.00;4902023;29;20044;-87
2023/10/12 05:13:10;;;;;;;48.38;22.00;;;;;;;15.30;100.00;100959.81;4915951;29;20028;-87
2023/10/12 05:15:40;;;;;;;50.08;22.17;;;;;;;15.37;100.00;100952.66;4903389;29;20471;-87
2023/10/12 05:18:17;;;;;;;48.03;23.33;;;;;;;15.37;100.00;100958.19;4898411;29;20099;-87
2023/10/12 05:20:44;;;;;;;50.28;21.60;;;;;;;15.35;100.00;100959.38;4897559;29;20043;-87
2023/10/12 05:23:13;;;;;;;46.13;21.38;;;;;;;15.32;100.00;100962.44;4904844;29;20091;-87
2023/10/12 05:28:37;;;;;;;43.63;21.63;;;;;;;15.33;100.00;100981.59;4897783;29;20040;-86
2023/10/12 05:36:10;;;;;;;38.25;20.15;;;;;;;15.32;100.00;100990.03;4918267;29;20045;-87
2023/10/12 05:38:36;;;;;;;;;;;;;;;15.39;100.00;100996.66;4919068;29;20035;-87
2023/10/12 05:41:04;;;;;;;46.88;20.40;;;;;;;15.35;100.00;100995.25;4917191;29;19930;-87
2023/10/12 05:43:33;;;;;;;42.25;20.48;;;;;;;15.31;100.00;100991.03;4886040;29;20036;-86
2023/10/12 05:46:14;;;;;;;41.03;20.73;;;;;;;15.34;100.00;100999.88;4899744;29;20052;-88
2023/10/12 05:48:58;;;;;;;48.40;20.98;;;;;;;15.32;100.00;100995.53;4913873;29;20032;-87
2023/10/12 05:51:45;;;;;;;44.40;20.52;;;;;;;15.32;100.00;101001.91;4916561;29;20502;-87
2023/10/12 05:54:28;;;;;;;42.60;20.85;;;;;;;15.36;100.00;101002.47;4912539;29;20060;-86
2023/10/12 05:57:03;;;;;;;49.63;20.67;;;;;;;15.34;100.00;101002.63;4869583;29;20464;-87
2023/10/12 05:59:29;;;;;;;51.47;21.17;;;;;;;15.33;100.00;101003.66;4908951;29;20032;-86
2023/10/12 06:01:55;;;;;;;47.83;21.42;;;;;;;15.36;100.00;101014.38;4903256;29;20037;-86
2023/10/12 06:04:21;;;;;;;43.42;19.95;;;;;;;15.32;100.00;101014.84;4898166;29;20483;-87
2023/10/12 06:06:51;;;;;;;45.17;20.10;;;;;;;15.35;100.00;101025.59;4879931;29;20032;-86
2023/10/12 06:09:23;;;;;;;40.60;21.05;;;;;;;15.30;100.00;101037.06;4899443;29;20032;-86
2023/10/12 06:11:51;;;;;;;46.25;20.23;;;;;;;15.30;100.00;101044.44;4907927;29;20119;-89
2023/10/12 06:14:25;;;;;;;40.70;20.83;;;;;;;15.31;100.00;101026.88;4907239;29;20119;-88
2023/10/12 06:17:02;;;;;;;45.05;19.70;;;;;;;15.36;100.00;101030.94;4917581;29;20035;-87
2023/10/12 06:19:29;;;;;;;38.90;19.75;;;;;;;15.32;100.00;101031.41;4913916;29;20031;-86
2023/10/12 06:21:59;;;;;;;41.38;18.90;;;;;;;15.43;100.00;101036.75;4920594;29;20012;-90
2023/10/12 06:24:33;;;;;;;39.70;19.77;;;;;;;15.34;100.00;101032.97;4902137;29;20028;-87
2023/10/12 06:27:22;;;;;;;38.92;19.65;;;;;;;15.35;100.00;101031.97;4923086;29;20039;-89
2023/10/12 06:30:06;;;;;;;53.30;19.38;;;;;;;15.37;100.00;101040.09;4963903;23;20059;-88
2023/10/12 06:32:32;;;;;;;46.75;18.85;;;;;;;15.33;100.00;101038.66;4937459;29;20086;-89
2023/10/12 06:45:49;;;;;;;55.22;19.75;;;;;;;15.41;100.00;101041.53;4891723;29;20028;-87
2023/10/12 06:49:03;;;;;;;50.88;18.90;;;;;;;15.38;100.00;101052.84;4915982;29;20032;-87
2023/10/12 06:51:13;;;;;;;45.58;19.20;;;;;;;15.41;100.00;101058.09;4914173;29;20040;-88
2023/10/12 06:53:53;;;;;;;40.40;19.08;;;;;;;15.34;100.00;101052.28;4904490;29;20035;-88
2023/10/12 06:56:25;;;;;;;41.05;19.52;;;;;;;15.38;100.00;101059.28;4923289;29;20102;-90
2023/10/12 06:59:13;;;;;;;33.15;17.38;;;;;;;15.42;100.00;101054.31;4902307;29;20475;-89
2023/10/12 07:07:17;;;;;;;40.33;18.90;;;;;;;15.45;100.00;101067.81;4896695;29;20039;-88
2023/10/12 07:09:46;;;;;;;40.40;18.63;;;;;;;15.42;100.00;101070.88;4915060;29;20039;-89
2023/10/12 07:12:19;;;;;;;43.90;17.05;;;;;;;15.41;100.00;101072.78;4902481;29;20279;-88
2023/10/12 07:14:53;;;;;;;36.55;18.10;;;;;;;15.38;100.00;101077.69;4916911;29;20120;-87
2023/10/12 07:17:27;;;;;;;35.05;18.00;;;;;;;15.43;100.00;101087.28;4901701;29;20114;-87
2023/10/12 07:19:55;;;;;;;40.00;17.27;;;;;;;15.35;100.00;101087.16;4901654;29;20024;-89
2023/10/12 07:22:21;;;;;;;44.28;18.27;;;;;;;15.43;100.00;101078.16;4916868;29;20052;-88
2023/10/12 07:24:53;;;;;;;38.03;17.55;;;;;;;15.38;100.00;101092.38;4911580;29;20388;-88
2023/10/12 07:27:23;;;;;;;46.53;18.00;;;;;;;15.41;100.00;101085.69;4913214;29;20111;-87
2023/10/12 07:30:02;;;;;;;39.45;17.48;;;;;;;15.44;100.00;101088.16;4898596;29;20163;-77
2023/10/12 07:32:32;;;;;;;48.72;19.05;;;;;;;15.44;100.00;101088.16;4923036;29;20130;-77
2023/10/12 07:35:06;;;;;;;37.58;17.33;;;;;;;15.49;100.00;101091.34;4917875;29;20031;-78
2023/10/12 07:37:31;;;;;;;40.03;17.63;;;;;;;15.49;100.00;101098.75;4929702;29;20031;-78
2023/10/12 07:40:13;;;;;;;36.05;17.67;;;;;;;15.42;100.00;101096.56;4924430;29;20071;-78
2023/10/12 07:42:40;;;;;;;37.88;17.85;;;;;;;15.42;100.00;101106.75;4905899;29;20043;-78
2023/10/12 07:45:06;;;;;;;38.25;18.90;;;;;;;15.49;100.00;101107.03;4930447;29;20043;-78
2023/10/12 07:47:40;;;;;;;38.15;18.17;;;;;;;15.53;100.00;101094.69;4925907;29;20505;-78
2023/10/12 07:50:12;;;;;;;41.33;18.42;;;;;;;15.48;100.00;101097.00;4929123;29;20051;-78
2023/10/12 07:52:46;;;;;;;33.78;17.33;;;;;;;15.53;100.00;101095.56;4922761;29;20032;-78
2023/10/12 07:55:12;;;;;;;39.08;19.05;;;;;;;15.67;100.00;101105.25;4928576;29;20438;-78
2023/10/12 07:57:39;;;;;;;41.10;18.17;;;;;;;15.69;100.00;101102.34;4917031;29;20043;-78
2023/10/12 08:08:08;;;;;;;44.95;19.38;;;;;;;15.56;100.00;101111.81;4926847;29;20027;-78
2023/10/12 08:13:15;;;;;;;45.28;19.85;;;;;;;15.61;100.00;101105.88;4910294;29;20114;-78
2023/10/12 08:21:24;;;;;;;39.70;20.60;;;;;;;15.73;100.00;101101.91;4921765;29;20126;-78
2023/10/12 08:23:57;;;;;;;48.08;19.55;;;;;;;15.75;100.00;101110.88;4930204;29;20024;-78
2023/10/12 08:31:48;;;;;;;36.40;18.58;;;;;;;15.77;100.00;101103.38;4924068;29;20048;-78
2023/10/12 08:39:37;;;;;;;45.33;18.80;;;;;;;15.95;100.00;101099.81;4927555;29;20453;-88
2023/10/12 08:44:53;;;;;;;43.92;17.23;;;;;;;15.88;100.00;101102.31;4935591;29;20118;-89
2023/10/12 08:50:47;;;;;;;36.80;16.13;;;;;;;16.00;100.00;101108.53;4929952;29;20174;-89
2023/10/12 08:52:54;;;;;;;25.83;15.73;;;;;;;16.05;100.00;101103.41;4927528;29;20040;-89
2023/10/12 08:55:24;;;;;;;29.92;15.82;;;;;;;16.10;100.00;101105.72;4930659;29;20542;-89
2023/10/12 08:58:11;;;;;;;39.50;16.25;;;;;;;16.20;100.00;101100.16;4917996;29;20031;-88
2023/10/12 09:00:42;;;;;;;31.92;16.15;;;;;;;16.33;100.00;101100.66;4936998;29;20513;-87
2023/10/12 09:03:24;;;;;;;31.42;14.95;;;;;;;16.31;100.00;101102.72;4918428;29;20180;-89
2023/10/12 09:05:58;;;;;;;37.65;14.88;;;;;;;16.33;100.00;101108.97;4932809;29;20051;-88
2023/10/12 09:13:33;;;;;;;35.13;15.93;;;;;;;16.53;100.00;101118.06;4933669;29;20063;-87
2023/10/12 09:16:04;;;;;;;38.17;16.27;;;;;;;16.57;100.00;101118.59;4913448;29;20024;-87
2023/10/12 09:18:33;;;;;;;31.77;16.17;;;;;;;16.52;100.00;101110.78;4926769;29;20038;-87
2023/10/12 09:21:17;;;;;;;33.67;15.38;;;;;;;16.56;100.00;101112.22;4913140;29;20070;-88
2023/10/12 09:23:50;;;;;;;30.45;15.77;;;;;;;16.56;100.00;101116.84;4926152;29;20490;-87
2023/10/12 09:26:30;;;;;;;34.33;16.25;;;;;;;16.68;100.00;101118.41;4903279;29;20047;-88
2023/10/12 09:34:42;;;;;;;32.25;16.30;;;;;;;16.80;100.00;101121.81;4939881;29;20035;-89
2023/10/12 09:36:59;;;;;;;32.58;15.93;;;;;;;16.72;100.00;101112.41;4933203;29;20062;-88
2023/10/12 09:39:34;;;;;;;31.83;15.15;;;;;;;16.79;100.00;101112.66;4903385;29;20035;-87
2023/10/12 09:42:14;;;;;;;38.10;17.27;;;;;;;16.83;100.00;101115.97;4907544;29;20474;-87
2023/10/12 09:45:01;;;;;;;30.90;14.80;;;;;;;16.78;100.00;101110.91;4931538;29;20122;-87
2023/10/12 09:47:36;;;;;;;28.63;15.18;;;;;;;16.81;100.00;101106.97;4916335;29;20060;-79
2023/10/12 09:50:13;;;;;;;28.38;13.80;;;;;;;16.78;100.00;101112.81;4926876;29;20039;-77
2023/10/12 09:52:57;;;;;;;36.30;14.23;;;;;;;16.78;100.00;101110.03;4931433;29;20039;-77
2023/10/12 09:55:33;;;;;;;29.90;14.93;;;;;;;16.83;100.00;101102.13;4930836;29;20479;-77
2023/10/12 10:01:01;;;;;;;36.63;15.02;;;;;;;17.02;100.00;101096.50;4898494;29;20529;-77
2023/10/12 10:03:47;;;;;;;30.17;16.35;;;;;;;17.01;100.00;101086.44;4925408;29;20078;-77
2023/10/12 10:06:19;;;;;;;41.75;17.15;;;;;;;17.03;100.00;101089.91;4923470;29;20036;-77
2023/10/12 10:08:57;;;;;;;32.45;16.80;;;;;;;17.07;100.00;101088.59;4930624;29;20039;-77
2023/10/12 10:11:26;;;;;;;36.92;16.08;;;;;;;17.06;100.00;101088.75;4930090;29;20035;-77
2023/10/12 10:13:53;;;;;;;40.17;15.30;;;;;;;16.98;100.00;101089.53;4930940;29;20028;-77
2023/10/12 10:16:20;;;;;;;40.92;15.82;;;;;;;16.97;100.00;101089.69;4898793;29;20078;-77
2023/10/12 10:18:49;;;;;;;29.05;15.70;;;;;;;16.99;100.00;101079.34;4926525;29;20454;-77
2023/10/12 10:21:19;;;;;;;26.92;15.73;;;;;;;16.95;100.00;101092.59;4913681;29;20062;-77
2023/10/12 10:23:48;;;;;;;30.10;14.75;;;;;;;16.97;100.00;101098.88;4933478;29;20028;-77
2023/10/12 10:26:30;;;;;;;41.05;16.15;;;;;;;16.98;100.00;101092.28;4929826;29;20036;-77
2023/10/12 10:29:17;;;;;;;27.52;14.95;;;;;;;17.00;100.00;101092.13;4933021;29;20032;-78
2023/10/12 10:31:44;;;;;;;29.70;14.68;;;;;;;17.13;100.00;101083.44;4927544;29;20058;-77
2023/10/12 10:34:14;;;;;;;40.10;14.95;;;;;;;17.11;100.00;101088.28;4931056;29;20015;-78
2023/10/12 10:36:41;;;;;;;41.72;14.80;;;;;;;17.22;100.00;101091.66;4902522;29;20052;-77
2023/10/12 10:41:54;;;;;;;34.83;15.43;;;;;;;17.16;100.00;101078.47;4919827;29;20075;-77
2023/10/12 10:44:22;;;;;;;30.88;15.93;;;;;;;17.08;100.00;101079.25;4919330;29;20531;-77
2023/10/12 10:46:54;;;;;;;28.48;15.00;;;;;;;17.09;100.00;101080.13;4901512;29;20060;-77
2023/10/12 10:49:21;;;;;;;25.83;15.27;;;;;;;17.15;100.00;101086.91;4922678;29;20382;-77
2023/10/12 10:52:02;;;;;;;26.05;16.65;;;;;;;17.15;100.00;101081.38;4925955;29;20035;-77
2023/10/12 10:54:29;;;;;;;30.60;16.65;;;;;;;17.14;100.00;101071.34;4926489;29;20107;-77
2023/10/12 10:56:58;;;;;;;39.30;17.00;;;;;;;17.17;100.00;101071.91;4929198;29;20062;-77
2023/10/12 10:59:24;;;;;;;32.70;17.42;;;;;;;17.17;100.00;101071.03;4923777;29;20028;-87
2023/10/12 11:01:50;;;;;;;39.92;19.23;;;;;;;17.21;100.00;101072.44;4903886;29;20024;-88
2023/10/12 11:07:06;;;;;;;33.35;18.58;;;;;;;17.36;100.00;101057.00;4947504;29;20047;-87
2023/10/12 11:12:25;;;;;;;34.08;18.30;;;;;;;17.45;100.00;101049.63;4929753;29;20079;-88
2023/10/12 11:15:00;;;;;;;34.80;16.80;;;;;;;17.45;100.00;101050.50;4936010;29;20031;-88
2023/10/12 11:18:05;;;;;;;48.42;18.52;;;;;;;17.67;100.00;101055.66;4923504;29;20059;-88
2023/10/12 11:20:49;;;;;;;32.13;17.00;;;;;;;17.71;100.00;101055.19;4912493;29;20054;-88
2023/10/12 11:23:16;;;;;;;31.77;17.42;;;;;;;17.68;100.00;101052.75;4935185;29;20019;-89
2023/10/12 11:25:43;;;;;;;44.25;18.52;;;;;;;17.72;100.00;101054.13;4934428;29;20034;-88
2023/10/12 11:28:20;;;;;;;31.48;16.00;;;;;;;17.67;100.00;101045.44;4903749;29;20514;-88
2023/10/12 11:30:46;;;;;;;31.67;17.55;;;;;;;17.66;100.00;101037.31;4933633;29;20059;-87
2023/10/12 11:33:12;;;;;;;41.60;17.33;;;;;;;17.69;100.00;101035.06;4931891;29;20032;-89
2023/10/12 11:35:44;;;;;;;30.00;15.63;;;;;;;17.61;100.00;101029.47;4919482;29;20040;-88
2023/10/12 11:38:22;;;;;;;30.92;16.75;;;;;;;17.71;100.00;101037.69;4915603;29;20087;-88
2023/10/12 11:40:52;;;;;;;32.28;15.52;;;;;;;17.82;100.00;101034.63;4932502;29;20066;-89
2023/10/12 11:43:29;;;;;;;37.17;15.52;;;;;;;17.87;100.00;101036.91;4932047;29;20043;-89
2023/10/12 11:46:03;;;;;;;32.25;15.45;;;;;;;17.79;100.00;101048.81;4919419;29;20513;-89
2023/10/12 11:48:30;;;;;;;26.25;15.00;;;;;;;17.80;100.00;101051.41;4935851;29;20039;-88
2023/10/12 11:50:57;;;;;;;29.48;14.60;;;;;;;17.78;100.00;101039.63;4915566;29;20488;-88
2023/10/12 11:53:28;;;;;;;29.95;14.35;;;;;;;17.78;100.00;101047.09;4917748;29;20028;-88
2023/10/12 11:56:22;;;;;;;26.77;12.70;;;;;;;17.81;100.00;101047.63;4929727;29;20053;-88
2023/10/12 11:58:54;;;;;;;32.40;12.45;;;;;;;17.66;100.00;101043.72;4922858;29;20024;-89
2023/10/12 12:01:33;;;;;;;28.35;11.23;;;;;;;17.62;100.00;101039.53;4925613;29;20542;-88
2023/10/12 12:03:59;;;;;;;27.30;10.35;;;;;;;17.65;100.00;101039.22;4914492;29;20458;-89
2023/10/12 12:06:26;;;;;;;28.58;9.38;;;;;;;17.43;100.00;101035.97;4913376;29;20070;-88
2023/10/12 12:08:56;;;;;;;22.33;9.00;;;;;;;17.58;100.00;101046.44;4920565;29;20027;-89
2023/10/12 12:11:31;;;;;;;26.48;9.70;;;;;;;17.40;100.00;101040.97;4910101;29;20032;-88
2023/10/12 12:13:59;;;;;;;22.48;9.15;;;;;;;17.44;100.00;101037.69;4933897;29;20048;-87
2023/10/12 12:16:44;;;;;;;20.35;9.32;;;;;;;17.43;100.00;101030.44;4921195;29;20045;-88
2023/10/12 12:19:18;;;;;;;24.33;9.57;;;;;;;17.26;100.00;101025.78;4902725;29;20531;-88
2023/10/12 12:21:45;;;;;;;24.85;10.63;;;;;;;17.33;100.00;101026.91;4932993;29;20035;-88
2023/10/12 12:26:46;;;;;;;25.13;10.10;;;;;;;17.29;100.00;101024.59;4931312;29;20510;-88
2023/10/12 12:29:11;;;;;;;20.83;9.40;;;;;;;17.25;100.00;101010.22;4919214;29;20024;-88
2023/10/12 12:31:40;;;;;;;25.00;10.73;;;;;;;17.28;100.00;101026.47;4921563;29;20427;-88
2023/10/12 12:34:06;;;;;;;23.15;9.40;;;;;;;17.23;100.00;101017.81;4921699;29;20039;-88
2023/10/12 12:36:32;;;;;;;22.63;9.80;;;;;;;17.33;100.00;101020.47;4922979;29;20815;-88
2023/10/12 12:38:59;;;;;;;22.45;9.98;;;;;;;17.33;100.00;101013.06;4938253;29;20098;-88
2023/10/12 12:41:25;;;;;;;25.58;11.38;;;;;;;17.35;100.00;101016.53;4934380;29;20067;-88
2023/10/12 12:43:51;;;;;;;20.15;10.18;;;;;;;17.35;100.00;101010.09;4934167;29;20135;-88
2023/10/12 12:46:19;;;;;;;26.08;10.65;;;;;;;17.48;100.00;101016.09;4936783;29;20043;-87
2023/10/12 12:48:45;;;;;;;22.13;10.65;;;;;;;17.48;100.00;101018.88;4910050;29;20036;-87
2023/10/12 12:51:15;;;;;;;17.73;9.45;;;;;;;17.48;100.00;101005.03;4933267;29;20042;-87
2023/10/12 12:54:02;;;;;;;24.17;11.15;;;;;;;17.38;100.00;100996.81;4910025;29;20040;-88
2023/10/12 12:56:29;;;;;;;26.00;10.50;;;;;;;17.43;100.00;100990.78;4932397;29;20035;-88
2023/10/12 12:58:54;;;;;;;19.70;11.15;;;;;;;17.45;100.00;101000.66;4902215;29;20479;-87
2023/10/12 13:01:23;;;;;;;25.67;12.18;;;;;;;17.37;100.00;100992.31;4890444;29;20148;-89
2023/10/12 13:03:55;;;;;;;23.85;10.90;;;;;;;17.30;100.00;100988.47;4927861;29;20043;-88
2023/10/12 13:06:20;;;;;;;29.40;13.05;;;;;;;17.30;100.00;100988.47;4921550;29;20040;-88
2023/10/12 13:08:46;;;;;;;28.55;12.43;;;;;;;17.23;100.00;100966.13;4915081;29;20040;-88
2023/10/12 13:11:16;;;;;;;24.20;12.38;;;;;;;17.32;100.00;100974.47;4912401;29;20068;-89
2023/10/12 13:13:42;;;;;;;24.48;12.77;;;;;;;17.30;100.00;100984.81;4924037;29;20489;-89
2023/10/12 13:16:12;;;;;;;28.40;13.27;;;;;;;17.44;100.00;100996.16;4905333;29;20062;-89
2023/10/12 13:18:38;;;;;;;26.95;12.80;;;;;;;17.38;100.00;100991.28;4909104;29;20028;-78
2023/10/12 13:21:12;;;;;;;24.60;12.57;;;;;;;17.42;100.00;100987.16;4919343;29;20039;-79
2023/10/12 13:23:39;;;;;;;28.55;13.45;;;;;;;17.43;100.00;100993.53;4933244;29;20034;-78
2023/10/12 13:26:12;;;;;;;30.85;12.63;;;;;;;17.50;100.00;100991.03;4903619;29;20149;-78
2023/10/12 13:28:44;;;;;;;22.00;12.43;;;;;;;17.55;100.00;100980.31;4930556;29;20028;-78
2023/10/12 13:31:14;;;;;;;28.88;12.52;;;;;;;17.68;100.00;100983.50;4898817;29;20056;-78
2023/10/12 13:33:41;;;;;;;31.42;13.57;;;;;;;17.71;100.00;100983.19;4920332;29;20032;-78
2023/10/12 13:36:08;;;;;;;28.58;12.93;;;;;;;17.71;100.00;100974.88;4927315;29;20047;-78
2023/10/12 13:38:36;;;;;;;23.90;12.27;;;;;;;17.70;100.00;100984.19;4936382;29;20035;-78
2023/10/12 13:41:02;;;;;;;21.33;11.82;;;;;;;17.60;100.00;100989.00;4919205;29;20050;-78
2023/10/12 13:43:30;;;;;;;25.27;12.38;;;;;;;17.69;100.00;100990.75;4933078;29;20102;-79
2023/10/12 13:45:56;;;;;;;28.70;12.52;;;;;;;17.77;100.00;100984.41;4929631;29;20047;-78
2023/10/12 13:48:25;;;;;;;22.98;11.30;;;;;;;17.87;100.00;100985.16;4925858;29;20036;-78
2023/10/12 13:51:04;;;;;;;26.83;11.55;;;;;;;17.82;100.00;100985.66;4913209;29;20036;-78
2023/10/12 13:53:38;;;;;;;28.13;11.38;;;;;;;17.74;100.00;100985.63;4928495;29;20508;-78
2023/10/12 13:56:08;;;;;;;23.42;10.93;;;;;;;17.73;100.00;101000.50;4930469;29;20059;-78
2023/10/12 13:58:36;;;;;;;23.48;9.80;;;;;;;17.70;100.00;100989.75;4916586;29;20020;-78